createdAt,value
2018-02-16T00:00:33.222Z,92.47
2018-02-16T00:01:13.594Z,92.94
2018-02-16T00:01:53.893Z,92.28
2018-02-16T00:02:34.406Z,92.18
2018-02-16T00:03:14.755Z,92.38
2018-02-16T00:03:55.242Z,92.18
2018-02-16T00:04:35.597Z,92.18
2018-02-16T00:05:16.030Z,92.38
2018-02-16T00:05:56.444Z,92.28
2018-02-16T00:06:36.779Z,92.18
2018-02-16T00:07:17.220Z,92.18
2018-02-16T00:07:57.598Z,92.18
2018-02-16T00:08:38.016Z,92.57
2018-02-16T00:09:18.401Z,91.99
2018-02-16T00:09:58.768Z,92.38
2018-02-16T00:10:39.123Z,92.28
2018-02-16T00:11:19.523Z,92.38
2018-02-16T00:11:59.909Z,92.38
2018-02-16T00:12:40.304Z,92.28
2018-02-16T00:13:20.718Z,92.66
2018-02-16T00:14:01.200Z,92.85
2018-02-16T00:14:41.619Z,93.13
2018-02-16T00:15:22.001Z,92.18
2018-02-16T00:16:02.437Z,91.9
2018-02-16T00:16:42.893Z,91.71
2018-02-16T00:17:23.320Z,91.42
2018-02-16T00:18:03.736Z,91.52
2018-02-16T00:18:44.261Z,91.99
2018-02-16T00:19:24.689Z,91.52
2018-02-16T00:20:05.088Z,91.85
2018-02-16T00:20:45.435Z,92.33
2018-02-16T00:21:25.904Z,92.38
2018-02-16T00:22:06.300Z,92.18
2018-02-16T00:22:46.627Z,92.09
2018-02-16T00:23:27.055Z,92.09
2018-02-16T00:24:07.424Z,92.38
2018-02-16T00:24:47.859Z,92.14
2018-02-16T00:25:28.252Z,92.14
2018-02-16T00:26:08.618Z,92.42
2018-02-16T00:26:49.033Z,92.9
2018-02-16T00:27:29.409Z,92.47
2018-02-16T00:28:09.862Z,92.33
2018-02-16T00:28:50.324Z,92.9
2018-02-16T00:29:30.673Z,93.08
2018-02-16T00:30:11.062Z,92.8
2018-02-16T00:30:51.437Z,92.8
2018-02-16T00:31:31.865Z,92.9
2018-02-16T00:32:12.246Z,92.99
2018-02-16T00:32:52.776Z,93.75
2018-02-16T00:33:33.111Z,93.56
2018-02-16T00:34:13.479Z,93.75
2018-02-16T00:34:54.036Z,93.65
2018-02-16T00:35:34.465Z,93.65
2018-02-16T00:36:14.885Z,93.75
2018-02-16T00:36:55.321Z,93.56
2018-02-16T00:37:35.773Z,93.37
2018-02-16T00:38:16.129Z,94.23
2018-02-16T00:38:56.506Z,94.04
2018-02-16T00:39:36.858Z,93.27
2018-02-16T00:40:17.273Z,93.56
2018-02-16T00:40:57.660Z,93.56
2018-02-16T00:41:38.084Z,93.84
2018-02-16T00:42:18.496Z,93.65
2018-02-16T00:42:58.898Z,93.37
2018-02-16T00:43:39.234Z,93.84
2018-02-16T00:44:19.625Z,93.84
2018-02-16T00:45:00.065Z,93.46
2018-02-16T00:45:40.452Z,93.65
2018-02-16T00:46:20.834Z,93.84
2018-02-16T00:47:01.226Z,93.56
2018-02-16T00:47:41.574Z,93.46
2018-02-16T00:48:21.981Z,93.37
2018-02-16T00:49:02.369Z,93.56
2018-02-16T00:49:42.761Z,93.56
2018-02-16T00:50:23.169Z,93.46
2018-02-16T00:51:03.598Z,93.37
2018-02-16T00:51:43.956Z,93.08
2018-02-16T00:52:24.307Z,93.27
2018-02-16T00:53:04.753Z,92.99
2018-02-16T00:53:45.149Z,92.99
2018-02-16T00:54:25.530Z,92.9
2018-02-16T00:55:05.893Z,92.8
2018-02-16T00:55:46.268Z,92.9
2018-02-16T00:56:26.671Z,93.46
2018-02-16T00:57:07.146Z,93.84
2018-02-16T00:57:47.505Z,92.99
2018-02-16T00:58:27.875Z,93.75
2018-02-16T00:59:08.305Z,93.27
2018-02-16T00:59:48.746Z,93.46
2018-02-16T01:00:29.057Z,93.37
2018-02-16T01:01:09.468Z,93.75
2018-02-16T01:01:49.880Z,93.56
2018-02-16T01:02:30.278Z,93.56
2018-02-16T01:03:10.648Z,93.84
2018-02-16T01:03:51.117Z,94.04
2018-02-16T01:04:31.476Z,93.46
2018-02-16T01:05:11.885Z,93.65
2018-02-16T01:05:52.259Z,93.27
2018-02-16T01:06:32.639Z,93.08
2018-02-16T01:07:13.062Z,92.71
2018-02-16T01:07:53.454Z,92.71
2018-02-16T01:08:33.839Z,93.46
2018-02-16T01:09:14.215Z,93.65
2018-02-16T01:09:54.578Z,93.65
2018-02-16T01:10:35.020Z,93.75
2018-02-16T01:11:15.370Z,93.75
2018-02-16T01:11:55.824Z,93.84
2018-02-16T01:12:36.822Z,93.65
2018-02-16T01:13:16.669Z,93.75
2018-02-16T01:13:57.014Z,94.23
2018-02-16T01:14:37.418Z,94.23
2018-02-16T01:15:17.838Z,94.32
2018-02-16T01:15:58.243Z,94.32
2018-02-16T01:16:38.660Z,93.84
2018-02-16T01:17:18.951Z,93.84
2018-02-16T01:17:59.347Z,93.94
2018-02-16T01:18:39.785Z,94.04
2018-02-16T01:19:20.114Z,93.94
2018-02-16T01:20:00.626Z,93.56
2018-02-16T01:20:40.977Z,93.56
2018-02-16T01:21:21.370Z,93.65
2018-02-16T01:22:01.770Z,93.37
2018-02-16T01:22:42.167Z,92.99
2018-02-16T01:23:22.576Z,92.8
2018-02-16T01:24:02.968Z,92.19
2018-02-16T01:24:43.318Z,92.19
2018-02-16T01:25:23.825Z,91.9
2018-02-16T01:26:04.159Z,91.9
2018-02-16T01:26:44.544Z,92.76
2018-02-16T01:27:24.952Z,93.8
2018-02-16T01:28:05.331Z,93.42
2018-02-16T01:28:45.749Z,93.7
2018-02-16T01:29:26.139Z,94.18
2018-02-16T01:30:06.542Z,94.46
2018-02-16T01:30:46.946Z,94.46
2018-02-16T01:31:27.330Z,94.37
2018-02-16T01:32:07.731Z,94.37
2018-02-16T01:32:48.067Z,94.46
2018-02-16T01:33:28.522Z,94.46
2018-02-16T01:34:08.898Z,94.56
2018-02-16T01:34:49.303Z,94.46
2018-02-16T01:35:29.662Z,94.18
2018-02-16T01:36:10.108Z,94.27
2018-02-16T01:36:50.481Z,94.27
2018-02-16T01:37:30.865Z,94.51
2018-02-16T01:38:11.402Z,94.46
2018-02-16T01:38:51.737Z,95.03
2018-02-16T01:39:32.095Z,94.84
2018-02-16T01:40:12.514Z,95.22
2018-02-16T01:40:52.895Z,94.93
2018-02-16T01:41:33.317Z,94.89
2018-02-16T01:42:13.692Z,95.07
2018-02-16T01:42:54.131Z,95.12
2018-02-16T01:43:34.486Z,95.45
2018-02-16T01:44:14.886Z,95.07
2018-02-16T01:44:55.278Z,95.26
2018-02-16T01:45:35.620Z,95.45
2018-02-16T01:46:16.069Z,95.65
2018-02-16T01:46:56.369Z,95.84
2018-02-16T01:47:36.863Z,94.98
2018-02-16T01:48:17.239Z,94.89
2018-02-16T01:48:57.586Z,94.23
2018-02-16T01:49:37.977Z,94.32
2018-02-16T01:50:18.299Z,94.6
2018-02-16T01:50:58.726Z,94.6
2018-02-16T01:51:39.192Z,94.6
2018-02-16T01:52:19.578Z,95.26
2018-02-16T01:53:00.034Z,95.84
2018-02-16T01:53:40.413Z,94.98
2018-02-16T01:54:20.726Z,95.45
2018-02-16T01:55:01.123Z,94.79
2018-02-16T01:55:41.610Z,94.89
2018-02-16T01:56:21.981Z,94.42
2018-02-16T01:57:02.311Z,94.32
2018-02-16T01:57:42.846Z,93.94
2018-02-16T01:58:23.284Z,94.23
2018-02-16T01:59:03.680Z,94.23
2018-02-16T01:59:44.072Z,93.94
2018-02-16T02:00:24.480Z,94.42
2018-02-16T02:01:04.932Z,94.7
2018-02-16T02:01:45.271Z,94.51
2018-02-16T02:02:25.713Z,94.13
2018-02-16T02:03:06.088Z,94.32
2018-02-16T02:03:46.482Z,94.32
2018-02-16T02:04:26.929Z,94.13
2018-02-16T02:05:07.394Z,93.37
2018-02-16T02:05:47.826Z,93.75
2018-02-16T02:06:28.160Z,93.65
2018-02-16T02:07:08.544Z,93.84
2018-02-16T02:07:48.981Z,93.56
2018-02-16T02:08:29.400Z,93.37
2018-02-16T02:09:09.760Z,92.8
2018-02-16T02:09:50.193Z,92.14
2018-02-16T02:10:30.582Z,92.71
2018-02-16T02:11:10.967Z,92.23
2018-02-16T02:11:51.360Z,92.71
2018-02-16T02:12:31.731Z,93.08
2018-02-16T02:13:12.140Z,92.71
2018-02-16T02:13:52.572Z,92.42
2018-02-16T02:14:32.972Z,92.42
2018-02-16T02:15:13.401Z,92.33
2018-02-16T02:15:53.770Z,92.33
2018-02-16T02:16:34.197Z,92.52
2018-02-16T02:17:14.655Z,92.14
2018-02-16T02:17:55.044Z,92.04
2018-02-16T02:18:35.516Z,92.14
2018-02-16T02:19:16.071Z,92.14
2018-02-16T02:19:56.386Z,92.52
2018-02-16T02:20:36.832Z,92.8
2018-02-16T02:21:17.226Z,92.23
2018-02-16T02:21:57.596Z,92.18
2018-02-16T02:22:37.998Z,92.14
2018-02-16T02:23:18.418Z,92.14
2018-02-16T02:23:58.869Z,92.23
2018-02-16T02:24:39.188Z,91.99
2018-02-16T02:25:19.627Z,91.61
2018-02-16T02:26:00.050Z,91.09
2018-02-16T02:26:40.414Z,91.14
2018-02-16T02:27:20.858Z,91.09
2018-02-16T02:28:01.240Z,91
2018-02-16T02:28:41.652Z,90.62
2018-02-16T02:29:22.008Z,90.91
2018-02-16T02:30:02.387Z,91.28
2018-02-16T02:30:42.808Z,91.09
2018-02-16T02:31:23.279Z,91.09
2018-02-16T02:32:03.687Z,90.72
2018-02-16T02:32:44.021Z,90.91
2018-02-16T02:33:24.452Z,90.62
2018-02-16T02:34:04.796Z,90.91
2018-02-16T02:34:45.217Z,90.34
2018-02-16T02:35:25.521Z,90.43
2018-02-16T02:36:05.967Z,90.34
2018-02-16T02:36:46.403Z,90.24
2018-02-16T02:37:26.755Z,91
2018-02-16T02:38:07.173Z,90.91
2018-02-16T02:38:47.545Z,91.38
2018-02-16T02:39:27.958Z,91.66
2018-02-16T02:40:08.354Z,91.66
2018-02-16T02:40:48.707Z,92.04
2018-02-16T02:41:29.097Z,92.14
2018-02-16T02:42:09.535Z,92.14
2018-02-16T02:42:49.953Z,91.57
2018-02-16T02:43:30.331Z,90.81
2018-02-16T02:44:10.754Z,90.72
2018-02-16T02:44:51.176Z,90.05
2018-02-16T02:45:31.500Z,89.96
2018-02-16T02:46:11.873Z,90.15
2018-02-16T02:46:52.302Z,89.96
2018-02-16T02:47:32.738Z,90.05
2018-02-16T02:48:13.021Z,90.62
2018-02-16T02:48:53.527Z,90.24
2018-02-16T02:49:33.896Z,90.34
2018-02-16T02:50:14.286Z,90.53
2018-02-16T02:50:54.724Z,90.81
2018-02-16T02:51:35.065Z,90.24
2018-02-16T02:52:15.442Z,91.09
2018-02-16T02:52:55.866Z,91.09
2018-02-16T02:53:36.279Z,90.72
2018-02-16T02:54:16.621Z,90.53
2018-02-16T02:54:57.089Z,91.28
2018-02-16T02:55:37.486Z,91.09
2018-02-16T02:56:17.913Z,91.09
2018-02-16T02:56:58.376Z,91
2018-02-16T02:57:38.706Z,90.05
2018-02-16T02:58:19.152Z,89.29
2018-02-16T02:58:59.512Z,89.2
2018-02-16T02:59:39.905Z,88.63
2018-02-16T03:00:20.247Z,88.35
2018-02-16T03:01:00.659Z,88.06
2018-02-16T03:01:41.124Z,88.73
2018-02-16T03:02:21.526Z,89.58
2018-02-16T03:03:01.874Z,89.67
2018-02-16T03:03:42.277Z,90.15
2018-02-16T03:04:22.670Z,89.58
2018-02-16T03:05:03.017Z,89.48
2018-02-16T03:05:43.441Z,88.44
2018-02-16T03:06:23.857Z,88.92
2018-02-16T03:07:04.432Z,89.77
2018-02-16T03:07:44.784Z,90.05
2018-02-16T03:08:25.140Z,89.96
2018-02-16T03:09:05.536Z,90.05
2018-02-16T03:09:45.927Z,90.05
2018-02-16T03:10:26.313Z,90.53
2018-02-16T03:11:06.801Z,90.15
2018-02-16T03:11:47.190Z,90.72
2018-02-16T03:12:27.590Z,90.15
2018-02-16T03:13:08.032Z,91.09
2018-02-16T03:13:48.412Z,90.91
2018-02-16T03:14:28.776Z,90.91
2018-02-16T03:15:09.232Z,90.62
2018-02-16T03:15:49.641Z,90.15
2018-02-16T03:16:30.014Z,90.05
2018-02-16T03:17:10.411Z,89.86
2018-02-16T03:17:50.786Z,90.15
2018-02-16T03:18:31.210Z,89.96
2018-02-16T03:19:11.576Z,89.77
2018-02-16T03:19:51.980Z,89.58
2018-02-16T03:20:32.407Z,89.86
2018-02-16T03:21:12.744Z,90.43
2018-02-16T03:21:53.181Z,90.24
2018-02-16T03:22:33.526Z,90.81
2018-02-16T03:23:14.001Z,90.53
2018-02-16T03:23:54.400Z,90.43
2018-02-16T03:24:34.801Z,90.81
2018-02-16T03:25:15.148Z,90.81
2018-02-16T03:25:55.569Z,90.43
2018-02-16T03:26:35.906Z,89.58
2018-02-16T03:27:16.352Z,89.39
2018-02-16T03:27:57.340Z,89.48
2018-02-16T03:28:37.177Z,89.01
2018-02-16T03:29:17.573Z,88.44
2018-02-16T03:29:58.084Z,88.54
2018-02-16T03:30:38.485Z,88.21
2018-02-16T03:31:18.887Z,89.34
2018-02-16T03:31:59.196Z,89.91
2018-02-16T03:32:39.677Z,89.82
2018-02-16T03:33:20.102Z,90.2
2018-02-16T03:34:00.467Z,90.48
2018-02-16T03:34:40.965Z,90.29
2018-02-16T03:35:21.330Z,91.52
2018-02-16T03:36:01.683Z,91.81
2018-02-16T03:36:42.162Z,92.57
2018-02-16T03:37:22.594Z,92.57
2018-02-16T03:38:03.008Z,93.04
2018-02-16T03:38:43.477Z,92.85
2018-02-16T03:39:23.794Z,92.66
2018-02-16T03:40:04.230Z,93.13
2018-02-16T03:40:44.582Z,92.85
2018-02-16T03:41:25.008Z,93.32
2018-02-16T03:42:05.437Z,93.7
2018-02-16T03:42:45.773Z,93.7
2018-02-16T03:43:26.208Z,93.42
2018-02-16T03:44:06.599Z,93.89
2018-02-16T03:44:46.979Z,93.04
2018-02-16T03:45:27.376Z,93.8
2018-02-16T03:46:07.781Z,93.51
2018-02-16T03:46:48.112Z,93.42
2018-02-16T03:47:28.526Z,93.61
2018-02-16T03:48:08.907Z,93.99
2018-02-16T03:48:49.344Z,93.89
2018-02-16T03:49:29.729Z,94.46
2018-02-16T03:50:10.136Z,94.37
2018-02-16T03:50:50.498Z,93.8
2018-02-16T03:51:30.897Z,93.99
2018-02-16T03:52:11.382Z,93.89
2018-02-16T03:52:51.722Z,93.89
2018-02-16T03:53:32.116Z,93.99
2018-02-16T03:54:12.503Z,94.56
2018-02-16T03:54:52.884Z,95.22
2018-02-16T03:55:33.269Z,95.45
2018-02-16T03:56:13.674Z,95.93
2018-02-16T03:56:54.091Z,95.74
2018-02-16T03:57:34.498Z,95.55
2018-02-16T03:58:14.883Z,95.84
2018-02-16T03:58:55.253Z,95.45
2018-02-16T03:59:35.662Z,95.17
2018-02-16T04:00:16.033Z,94.7
2018-02-16T04:00:56.494Z,94.13
2018-02-16T04:01:36.994Z,93.65
2018-02-16T04:02:17.376Z,94.13
2018-02-16T04:02:57.755Z,93.27
2018-02-16T04:03:38.190Z,92.9
2018-02-16T04:43:48.387Z,97.78
2018-02-16T04:44:41.724Z,97.97
2018-02-16T04:45:33.460Z,98.35
2018-02-16T04:46:25.551Z,97.87
2018-02-16T04:48:19.985Z,97.87
2018-02-16T04:49:11.549Z,98.06
2018-02-16T04:51:20.505Z,98.54
2018-02-16T04:52:11.718Z,98.44
2018-02-16T04:53:00.659Z,97.59
2018-02-16T04:53:40.958Z,98.35
2018-02-16T04:54:21.411Z,98.16
2018-02-16T04:55:01.902Z,98.35
2018-02-16T04:55:42.365Z,98.63
2018-02-16T04:56:23.005Z,98.35
2018-02-16T04:57:03.378Z,97.87
2018-02-16T04:57:44.479Z,97.78
2018-02-16T04:58:24.213Z,97.97
2018-02-16T04:59:04.568Z,98.25
2018-02-16T04:59:44.942Z,97.78
2018-02-16T05:00:25.346Z,98.49
2018-02-16T05:01:05.827Z,97.45
2018-02-16T05:01:46.146Z,97.83
2018-02-16T05:02:26.538Z,97.92
2018-02-16T05:03:06.933Z,97.64
2018-02-16T05:03:47.295Z,97.35
2018-02-16T05:04:27.688Z,96.78
2018-02-16T05:05:08.055Z,96.69
2018-02-16T05:05:48.497Z,96.41
2018-02-16T05:06:28.832Z,96.12
2018-02-16T05:07:09.317Z,94.98
2018-02-16T05:07:49.834Z,95.26
2018-02-16T05:08:30.220Z,94.79
2018-02-16T05:09:10.558Z,95.07
2018-02-16T05:09:50.952Z,94.98
2018-02-16T05:10:31.474Z,94.93
2018-02-16T05:11:11.833Z,94.65
2018-02-16T05:11:52.260Z,94.18
2018-02-16T05:12:32.692Z,93.99
2018-02-16T05:13:13.096Z,93.61
2018-02-16T05:13:53.457Z,93.32
2018-02-16T05:14:33.884Z,92.94
2018-02-16T05:15:14.199Z,92.47
2018-02-16T05:15:54.563Z,92.18
2018-02-16T05:16:35.054Z,92.18
2018-02-16T05:17:15.506Z,92.28
2018-02-16T05:17:55.862Z,91.9
2018-02-16T05:18:36.261Z,91.42
2018-02-16T05:19:16.692Z,91.66
2018-02-16T05:19:57.076Z,91.19
2018-02-16T05:20:37.488Z,90.81
2018-02-16T05:21:17.962Z,91
2018-02-16T05:21:58.305Z,90.24
2018-02-16T05:22:38.678Z,90.62
2018-02-16T05:23:19.120Z,90.24
2018-02-16T05:23:59.497Z,90.33
2018-02-16T05:24:39.882Z,90.62
2018-02-16T05:25:20.313Z,90.14
2018-02-16T05:26:00.688Z,89.2
2018-02-16T05:26:41.042Z,89.58
2018-02-16T05:27:21.579Z,89.95
2018-02-16T05:28:01.978Z,89.48
2018-02-16T05:28:42.347Z,89.48
2018-02-16T05:29:22.819Z,88.53
2018-02-16T05:30:03.259Z,88.62
2018-02-16T05:30:43.630Z,88.43
2018-02-16T05:31:23.967Z,87.87
2018-02-16T05:32:04.409Z,88.06
2018-02-16T05:32:44.862Z,88.15
2018-02-16T05:33:25.227Z,87.68
2018-02-16T05:34:05.639Z,87.49
2018-02-16T05:34:46.086Z,87.01
2018-02-16T05:35:26.527Z,86.91
2018-02-16T05:36:06.986Z,86.91
2018-02-16T05:36:47.322Z,86.63
2018-02-16T05:37:27.718Z,87.39
2018-02-16T05:38:08.095Z,87.39
2018-02-16T05:38:49.066Z,87.77
2018-02-16T05:39:29.434Z,87.96
2018-02-16T05:40:09.812Z,87.3
2018-02-16T05:40:50.204Z,87.58
2018-02-16T05:41:30.672Z,87.49
2018-02-16T05:42:10.966Z,87.87
2018-02-16T05:42:51.526Z,87.68
2018-02-16T05:43:31.864Z,87.58
2018-02-16T05:44:12.188Z,87.49
2018-02-16T05:44:52.574Z,87.49
2018-02-16T05:45:33.031Z,87.49
2018-02-16T05:46:13.471Z,87.3
2018-02-16T05:46:53.867Z,87.68
2018-02-16T05:47:34.279Z,87.68
2018-02-16T05:48:14.667Z,87.39
2018-02-16T05:48:55.101Z,86.72
2018-02-16T05:49:35.449Z,87.11
2018-02-16T05:50:15.894Z,87.01
2018-02-16T05:50:56.261Z,86.63
2018-02-16T05:51:36.720Z,86.91
2018-02-16T05:52:17.112Z,87.11
2018-02-16T05:52:57.614Z,86.82
2018-02-16T05:53:38.195Z,86.91
2018-02-16T05:54:18.568Z,86.72
2018-02-16T05:54:58.966Z,86.82
2018-02-16T05:55:39.356Z,86.72
2018-02-16T05:56:19.731Z,87.11
2018-02-16T05:57:00.149Z,86.82
2018-02-16T05:57:40.582Z,86.91
2018-02-16T05:58:21.007Z,87.58
2018-02-16T05:59:01.452Z,87.2
2018-02-16T05:59:41.783Z,87.11
2018-02-16T06:00:22.246Z,86.82
2018-02-16T06:01:02.870Z,86.35
2018-02-16T06:01:43.307Z,85.97
2018-02-16T06:02:23.660Z,85.4
2018-02-16T06:03:04.068Z,85.3
2018-02-16T06:03:44.434Z,84.83
2018-02-16T06:04:24.819Z,84.36
2018-02-16T06:05:05.321Z,84.83
2018-02-16T06:05:45.764Z,85.4
2018-02-16T06:06:26.076Z,85.3
2018-02-16T06:07:06.490Z,86.16
2018-02-16T06:07:46.945Z,86.35
2018-02-16T06:08:27.821Z,86.91
2018-02-16T06:09:08.260Z,86.82
2018-02-16T06:09:48.897Z,86.44
2018-02-16T06:10:29.222Z,86.82
2018-02-16T06:11:10.874Z,86.63
2018-02-16T06:11:52.007Z,87.39
2018-02-16T06:12:33.364Z,87.01
2018-02-16T06:13:13.870Z,86.91
2018-02-16T06:13:54.767Z,86.78
2018-02-16T06:14:39.304Z,86.87
2018-02-16T06:15:19.876Z,87.16
2018-02-16T06:16:00.016Z,86.87
2018-02-16T06:16:40.497Z,87.45
2018-02-16T06:17:21.025Z,87.54
2018-02-16T06:18:01.611Z,87.35
2018-02-16T06:18:41.829Z,87.45
2018-02-16T06:19:23.079Z,87.77
2018-02-16T06:20:03.535Z,87.49
2018-02-16T06:20:44.084Z,87.2
2018-02-16T06:21:24.497Z,86.91
2018-02-16T06:22:05.543Z,87.3
2018-02-16T06:22:45.834Z,86.72
2018-02-16T06:23:26.184Z,86.72
2018-02-16T06:24:06.699Z,86.82
2018-02-16T06:24:48.157Z,87.2
2018-02-16T06:25:29.345Z,87.2
2018-02-16T06:26:09.784Z,87.01
2018-02-16T06:26:50.149Z,86.91
2018-02-16T06:27:30.711Z,86.16
2018-02-16T06:28:11.492Z,86.44
2018-02-16T06:28:51.529Z,86.07
2018-02-16T06:29:31.938Z,86.44
2018-02-16T06:31:57.322Z,86.3
2018-02-16T06:32:53.501Z,86.3
2018-02-16T06:33:47.006Z,86.78
2018-02-16T06:34:44.515Z,87.25
2018-02-16T06:35:42.006Z,87.25
2018-02-16T06:36:39.256Z,86.97
2018-02-16T06:37:37.505Z,86.97
2018-02-16T06:38:33.489Z,86.78
2018-02-16T06:39:31.231Z,87.54
2018-02-16T06:40:29.928Z,87.06
2018-02-16T06:41:27.203Z,86.87
2018-02-16T06:42:26.076Z,87.06
2018-02-16T06:43:23.421Z,86.97
2018-02-16T06:44:15.955Z,86.87
2018-02-16T06:45:14.429Z,87.16
2018-02-16T06:46:17.399Z,87.45
2018-02-16T06:47:20.157Z,86.59
2018-02-16T06:48:16.855Z,87.16
2018-02-16T06:49:08.059Z,86.78
2018-02-16T06:50:03.510Z,86.82
2018-02-16T06:50:57.844Z,86.97
2018-02-16T06:51:47.647Z,86.91
2018-02-16T06:52:28.017Z,86.91
2018-02-16T06:53:08.902Z,86.72
2018-02-16T06:53:49.387Z,86.63
2018-02-16T06:54:29.755Z,86.35
2018-02-16T06:55:10.224Z,86.16
2018-02-16T06:55:50.591Z,86.25
2018-02-16T06:56:30.960Z,85.97
2018-02-16T06:57:11.823Z,86.16
2018-02-16T06:57:52.515Z,85.3
2018-02-16T06:58:33.434Z,85.68
2018-02-16T06:59:13.764Z,85.21
2018-02-16T06:59:54.310Z,85.3
2018-02-16T07:00:34.882Z,85.49
2018-02-16T07:01:15.433Z,85.4
2018-02-16T07:01:55.875Z,85.02
2018-02-16T07:02:36.630Z,85.4
2018-02-16T07:03:17.490Z,85.4
2018-02-16T07:03:58.550Z,85.4
2018-02-16T07:04:39.340Z,85.21
2018-02-16T07:05:20.090Z,84.55
2018-02-16T07:06:00.629Z,85.02
2018-02-16T07:06:41.294Z,84.83
2018-02-16T07:07:22.322Z,84.59
2018-02-16T07:08:02.782Z,83.83
2018-02-16T07:08:43.412Z,83.73
2018-02-16T07:09:23.796Z,83.36
2018-02-16T07:10:04.461Z,83.26
2018-02-16T07:10:44.786Z,83.54
2018-02-16T07:11:25.383Z,83.26
2018-02-16T07:12:05.910Z,82.59
2018-02-16T07:12:46.487Z,82.78
2018-02-16T07:13:27.076Z,82.59
2018-02-16T07:14:07.850Z,82.03
2018-02-16T07:15:02.961Z,81.07
2018-02-16T07:18:02.548Z,80.83
2018-02-16T07:20:02.581Z,80.83
2018-02-16T07:24:16.791Z,79.44
2018-02-16T07:29:17.768Z,76.78
2018-02-16T07:30:15.750Z,76.21
2018-02-16T07:31:16.116Z,74.82
2018-02-16T07:33:25.785Z,74.63
2018-02-16T07:34:22.380Z,73.97
2018-02-16T07:35:18.262Z,73.3
2018-02-16T07:36:27.379Z,72.35
2018-02-16T07:37:27.141Z,72.83
2018-02-16T07:38:20.716Z,72.35
2018-02-16T07:39:14.479Z,72.58
2018-02-16T07:40:10.012Z,72.58
2018-02-16T07:41:03.966Z,71.82
2018-02-16T07:41:59.215Z,71.72
2018-02-16T07:42:58.084Z,70.77
2018-02-16T07:43:57.143Z,70.87
2018-02-16T07:44:53.332Z,69.85
2018-02-16T07:45:54.704Z,70.24
2018-02-16T07:46:46.076Z,69.38
2018-02-16T07:47:53.408Z,69.48
2018-02-16T07:48:50.980Z,69.38
2018-02-16T07:50:04.709Z,68.62
2018-02-16T07:50:59.841Z,68.46
2018-02-16T07:51:55.560Z,67.8
2018-02-16T07:52:53.418Z,68.08
2018-02-16T07:53:54.139Z,66.85
2018-02-16T07:54:52.540Z,66.85
2018-02-16T07:59:40.195Z,65.2
2018-02-16T08:00:52.469Z,63.86
2018-02-16T08:11:06.221Z,61.07
2018-02-16T08:12:01.553Z,61.16
2018-02-16T08:12:56.345Z,60.58
2018-02-16T08:13:48.961Z,60.3
2018-02-16T08:14:54.960Z,59.56
2018-02-16T08:15:48.301Z,58.42
2018-02-16T08:16:52.584Z,58.9
2018-02-16T08:18:56.337Z,57.78
2018-02-16T08:19:54.773Z,56.73
2018-02-16T08:20:48.433Z,56.85
2018-02-16T08:21:58.444Z,56.85
2018-02-16T08:22:52.383Z,56.18
2018-02-16T08:23:49.675Z,55.8
2018-02-16T08:24:43.819Z,55.77
2018-02-16T08:25:38.855Z,56.18
2018-02-16T08:26:37.290Z,56.25
2018-02-16T08:28:55.065Z,55.68
2018-02-16T08:37:39.707Z,61.32
2018-02-16T08:39:40.170Z,60.68
2018-02-16T08:40:33.600Z,60.49
2018-02-16T08:41:29.972Z,59.82
2018-02-16T08:42:23.329Z,59.38
2018-02-16T08:48:07.439Z,55.16
2018-02-16T08:49:16.421Z,55.45
2018-02-16T08:50:39.255Z,54.33
2018-02-16T09:02:39.149Z,50.46
2018-02-16T09:03:20.092Z,50.26
2018-02-16T09:04:01.102Z,49.79
2018-02-16T09:04:42.610Z,49.98
2018-02-16T09:05:23.103Z,49.69
2018-02-16T09:06:04.110Z,49.91
2018-02-16T09:06:44.692Z,49.62
2018-02-16T09:07:28.022Z,49.62
2018-02-16T09:08:08.670Z,48.69
2018-02-16T09:08:49.229Z,48.3
2018-02-16T09:09:29.760Z,48.11
2018-02-16T09:10:10.289Z,48.02
2018-02-16T09:10:51.610Z,47.34
2018-02-16T09:11:31.686Z,47.34
2018-02-16T09:12:12.736Z,47.03
2018-02-16T09:12:55.853Z,48.28
2018-02-16T09:13:38.605Z,48.28
2018-02-16T09:14:19.764Z,47.63
2018-02-16T09:15:00.604Z,47.32
2018-02-16T09:15:41.164Z,47.63
2018-02-16T09:16:22.199Z,47.06
2018-02-16T09:17:02.798Z,46.77
2018-02-16T09:17:43.562Z,47.03
2018-02-16T09:18:24.407Z,46.94
2018-02-16T09:19:05.307Z,47.97
2018-02-16T09:19:47.144Z,49.31
2018-02-16T09:20:27.341Z,48.57
2018-02-16T09:21:07.943Z,49.14
2018-02-16T09:21:48.728Z,48.18
2018-02-16T09:22:30.116Z,48.38
2018-02-16T09:23:10.192Z,48.28
2018-02-16T09:23:50.542Z,48.09
2018-02-16T09:24:31.491Z,48.02
2018-02-16T09:25:12.047Z,47.25
2018-02-16T09:25:53.418Z,46.48
2018-02-16T09:26:34.658Z,47.15
2018-02-16T09:27:14.789Z,47.15
2018-02-16T09:27:56.798Z,46.77
2018-02-16T09:28:36.539Z,46.39
2018-02-16T09:29:17.326Z,46.77
2018-02-16T09:29:57.753Z,46.77
2018-02-16T09:30:38.117Z,46.39
2018-02-16T09:31:18.782Z,46.19
2018-02-16T09:31:59.681Z,46.77
2018-02-16T09:32:41.980Z,46.67
2018-02-16T09:33:23.247Z,46.39
2018-02-16T09:34:03.958Z,46.79
2018-02-16T09:34:44.564Z,46.22
2018-02-16T09:35:25.333Z,46.31
2018-02-16T09:36:06.754Z,45.74
2018-02-16T09:36:48.111Z,45.93
2018-02-16T09:37:32.284Z,45.64
2018-02-16T09:38:13.249Z,45.64
2018-02-16T09:38:54.398Z,45.64
2018-02-16T09:39:35.760Z,45.93
2018-02-16T09:40:19.672Z,45.45
2018-02-16T09:41:04.267Z,45.45
2018-02-16T09:41:45.121Z,45.93
2018-02-16T09:42:25.925Z,45.64
2018-02-16T09:43:07.013Z,45.36
2018-02-16T09:43:48.298Z,45.54
2018-02-16T09:44:28.378Z,45.54
2018-02-16T09:45:09.050Z,45.07
2018-02-16T09:45:49.679Z,45.67
2018-02-16T09:46:32.005Z,44.97
2018-02-16T09:47:12.993Z,44.9
2018-02-16T09:47:53.626Z,44.32
2018-02-16T09:48:34.261Z,44.11
2018-02-16T09:49:14.941Z,44.68
2018-02-16T09:49:59.063Z,44.87
2018-02-16T09:50:39.497Z,44.78
2018-02-16T09:51:20.136Z,45.64
2018-02-16T09:52:00.567Z,45.07
2018-02-16T09:52:41.016Z,45.64
2018-02-16T09:53:22.409Z,45.07
2018-02-16T09:54:03.009Z,44.87
2018-02-16T09:54:43.502Z,45.36
2018-02-16T09:55:24.017Z,45.45
2018-02-16T09:56:06.047Z,45.64
2018-02-16T09:56:46.437Z,45.36
2018-02-16T09:57:27.031Z,45.07
2018-02-16T09:58:08.181Z,44.61
2018-02-16T09:58:48.858Z,45.09
2018-02-16T09:59:29.403Z,43.84
2018-02-16T10:00:09.770Z,43.55
2018-02-16T10:00:50.178Z,44.03
2018-02-16T10:01:30.802Z,44.23
2018-02-16T10:02:11.753Z,44.03
2018-02-16T10:02:53.605Z,43.46
2018-02-16T10:03:33.904Z,43.65
2018-02-16T10:04:17.443Z,43.55
2018-02-16T10:04:58.116Z,44.23
2018-02-16T10:05:39.284Z,44.23
2018-02-16T10:47:54.160Z,41.37
2018-02-16T10:48:35.137Z,41.37
2018-02-16T10:49:16.049Z,41.27
2018-02-16T10:49:57.304Z,41.27
2018-02-16T10:50:38.570Z,41.46
2018-02-16T10:51:19.164Z,41.66
2018-02-16T10:54:02.802Z,41.66
2018-02-16T10:54:43.777Z,41.54
2018-02-16T10:56:08.335Z,42.29
2018-02-16T10:56:49.308Z,42.86
2018-02-16T10:57:33.690Z,42.96
2018-02-16T10:58:13.244Z,43.15
2018-02-16T10:58:54.059Z,43.24
2018-02-16T10:59:35.514Z,44.37
2018-02-16T11:00:16.824Z,44.37
2018-02-16T11:00:58.555Z,44.09
2018-02-16T11:01:39.237Z,44.06
2018-02-16T11:02:20.452Z,45.4
2018-02-16T11:03:00.684Z,45.69
2018-02-16T11:03:41.253Z,46.17
2018-02-16T11:04:21.970Z,46.17
2018-02-16T11:05:02.635Z,45.98
2018-02-16T11:05:43.280Z,45.69
2018-02-16T11:06:23.811Z,45.79
2018-02-16T11:07:05.836Z,45.89
2018-02-16T11:07:45.601Z,45.4
2018-02-16T11:08:26.107Z,45.89
2018-02-16T11:09:08.949Z,45.69
2018-02-16T11:09:49.332Z,45.98
2018-02-16T11:10:29.774Z,45.4
2018-02-16T11:11:11.036Z,44.83
2018-02-16T11:11:51.626Z,44.26
2018-02-16T11:12:33.446Z,44.37
2018-02-16T11:13:14.026Z,43.6
2018-02-16T11:13:54.860Z,43.7
2018-02-16T11:14:35.416Z,43.9
2018-02-16T11:15:17.422Z,43.91
2018-02-16T11:15:57.943Z,43.53
2018-02-16T11:16:38.413Z,43.44
2018-02-16T11:17:18.912Z,43.15
2018-02-16T11:18:00.084Z,42.57
2018-02-16T11:18:41.117Z,42.96
2018-02-16T11:19:22.006Z,42.5
2018-02-16T11:20:02.829Z,42.21
2018-02-16T11:20:43.257Z,42.88
2018-02-16T11:21:23.593Z,42.69
2018-02-16T11:22:04.441Z,42.4
2018-02-16T11:22:45.386Z,41.35
2018-02-16T11:23:26.065Z,40.87
2018-02-16T11:24:06.216Z,39.91
2018-02-16T11:24:47.318Z,41.06
2018-02-16T11:25:28.382Z,40
2018-02-16T11:26:08.643Z,40.12
2018-02-16T11:26:49.629Z,39.45
2018-02-16T11:27:30.172Z,39.16
2018-02-16T11:28:13.225Z,38.66
2018-02-16T11:28:54.282Z,38.95